sensor_id;sensor_type;location;lat;lon;timestamp;pressure;altitude;pressure_sealevel;temperature
15845;BMP180;50807;52.436;13.346;2024-03-06T00:00:17;101538.00;;;8.30
15845;BMP180;50807;52.436;13.346;2024-03-06T00:00:48;101533.00;;;8.30
15845;BMP180;50807;52.436;13.346;2024-03-06T00:01:19;101526.00;;;8.30
15845;BMP180;50807;52.436;13.346;2024-03-06T00:01:50;101532.00;;;8.30
15845;BMP180;50807;52.436;13.346;2024-03-06T00:02:21;101527.00;;;8.30
15845;BMP180;50807;52.436;13.346;2024-03-06T00:02:52;101524.00;;;8.30
15845;BMP180;50807;52.436;13.346;2024-03-06T00:03:23;101535.00;;;8.30
15845;BMP180;50807;52.436;13.346;2024-03-06T00:03:54;101536.00;;;8.30
15845;BMP180;50807;52.436;13.346;2024-03-06T00:04:25;101529.00;;;8.30
15845;BMP180;50807;52.436;13.346;2024-03-06T00:04:56;101535.00;;;8.30
15845;BMP180;50807;52.436;13.346;2024-03-06T00:05:27;101533.00;;;8.30
15845;BMP180;50807;52.436;13.346;2024-03-06T00:05:58;101538.00;;;8.30
15845;BMP180;50807;52.436;13.346;2024-03-06T00:06:29;101536.00;;;8.30
15845;BMP180;50807;52.436;13.346;2024-03-06T00:07:01;101534.00;;;8.20
15845;BMP180;50807;52.436;13.346;2024-03-06T00:07:31;101534.00;;;8.30
15845;BMP180;50807;52.436;13.346;2024-03-06T00:08:04;101532.00;;;8.20
15845;BMP180;50807;52.436;13.346;2024-03-06T00:08:35;101536.00;;;8.20
15845;BMP180;50807;52.436;13.346;2024-03-06T00:09:07;101537.00;;;8.20
15845;BMP180;50807;52.436;13.346;2024-03-06T00:09:38;101534.00;;;8.20
15845;BMP180;50807;52.436;13.346;2024-03-06T00:10:10;101540.00;;;8.20
15845;BMP180;50807;52.436;13.346;2024-03-06T00:10:41;101540.00;;;8.20
15845;BMP180;50807;52.436;13.346;2024-03-06T00:11:12;101541.00;;;8.20
15845;BMP180;50807;52.436;13.346;2024-03-06T00:11:44;101541.00;;;8.20
15845;BMP180;50807;52.436;13.346;2024-03-06T00:12:15;101534.00;;;8.20
15845;BMP180;50807;52.436;13.346;2024-03-06T00:12:46;101540.00;;;8.20
15845;BMP180;50807;52.436;13.346;2024-03-06T00:13:18;101539.00;;;8.20
15845;BMP180;50807;52.436;13.346;2024-03-06T00:13:48;101533.00;;;8.20
15845;BMP180;50807;52.436;13.346;2024-03-06T00:14:19;101541.00;;;8.20
15845;BMP180;50807;52.436;13.346;2024-03-06T00:14:53;101547.00;;;8.10
15845;BMP180;50807;52.436;13.346;2024-03-06T00:15:25;101547.00;;;8.20
15845;BMP180;50807;52.436;13.346;2024-03-06T00:15:55;101547.00;;;8.10
15845;BMP180;50807;52.436;13.346;2024-03-06T00:16:27;101539.00;;;8.20
15845;BMP180;50807;52.436;13.346;2024-03-06T00:16:57;101547.00;;;8.20
15845;BMP180;50807;52.436;13.346;2024-03-06T00:17:29;101549.00;;;8.20
15845;BMP180;50807;52.436;13.346;2024-03-06T00:18:00;101549.00;;;8.10
15845;BMP180;50807;52.436;13.346;2024-03-06T00:18:31;101554.00;;;8.10
15845;BMP180;50807;52.436;13.346;2024-03-06T00:19:02;101549.00;;;8.10
15845;BMP180;50807;52.436;13.346;2024-03-06T00:19:33;101542.00;;;8.10
15845;BMP180;50807;52.436;13.346;2024-03-06T00:20:06;101550.00;;;8.10
15845;BMP180;50807;52.436;13.346;2024-03-06T00:20:37;101554.00;;;8.10
15845;BMP180;50807;52.436;13.346;2024-03-06T00:21:11;101551.00;;;8.10
15845;BMP180;50807;52.436;13.346;2024-03-06T00:21:42;101555.00;;;8.10
15845;BMP180;50807;52.436;13.346;2024-03-06T00:22:13;101564.00;;;8.10
15845;BMP180;50807;52.436;13.346;2024-03-06T00:22:44;101557.00;;;8.10
15845;BMP180;50807;52.436;13.346;2024-03-06T00:23:16;101553.00;;;8.10
15845;BMP180;50807;52.436;13.346;2024-03-06T00:23:47;101555.00;;;8.10
15845;BMP180;50807;52.436;13.346;2024-03-06T00:24:18;101556.00;;;8.10
15845;BMP180;50807;52.436;13.346;2024-03-06T00:24:49;101560.00;;;8.10
15845;BMP180;50807;52.436;13.346;2024-03-06T00:25:20;101553.00;;;8.10
15845;BMP180;50807;52.436;13.346;2024-03-06T00:25:51;101555.00;;;8.10
15845;BMP180;50807;52.436;13.346;2024-03-06T00:26:22;101554.00;;;8.10
15845;BMP180;50807;52.436;13.346;2024-03-06T00:26:53;101562.00;;;8.10
15845;BMP180;50807;52.436;13.346;2024-03-06T00:27:25;101565.00;;;8.00
15845;BMP180;50807;52.436;13.346;2024-03-06T00:27:55;101568.00;;;8.00
15845;BMP180;50807;52.436;13.346;2024-03-06T00:28:26;101565.00;;;8.00
15845;BMP180;50807;52.436;13.346;2024-03-06T00:28:57;101564.00;;;8.00
15845;BMP180;50807;52.436;13.346;2024-03-06T00:29:29;101561.00;;;8.00
15845;BMP180;50807;52.436;13.346;2024-03-06T00:30:01;101561.00;;;8.00
15845;BMP180;50807;52.436;13.346;2024-03-06T00:30:32;101565.00;;;8.00
15845;BMP180;50807;52.436;13.346;2024-03-06T00:31:05;101563.00;;;8.00
15845;BMP180;50807;52.436;13.346;2024-03-06T00:31:35;101565.00;;;8.00
15845;BMP180;50807;52.436;13.346;2024-03-06T00:32:07;101561.00;;;8.00
15845;BMP180;50807;52.436;13.346;2024-03-06T00:32:38;101559.00;;;8.00
15845;BMP180;50807;52.436;13.346;2024-03-06T00:33:09;101558.00;;;8.00
15845;BMP180;50807;52.436;13.346;2024-03-06T00:33:40;101568.00;;;8.00
15845;BMP180;50807;52.436;13.346;2024-03-06T00:34:12;101572.00;;;8.00
15845;BMP180;50807;52.436;13.346;2024-03-06T00:34:44;101557.00;;;8.00
15845;BMP180;50807;52.436;13.346;2024-03-06T00:35:14;101566.00;;;8.00
15845;BMP180;50807;52.436;13.346;2024-03-06T00:35:46;101568.00;;;8.00
15845;BMP180;50807;52.436;13.346;2024-03-06T00:36:17;101564.00;;;8.00
15845;BMP180;50807;52.436;13.346;2024-03-06T00:36:48;101564.00;;;7.90
15845;BMP180;50807;52.436;13.346;2024-03-06T00:37:20;101571.00;;;7.90
15845;BMP180;50807;52.436;13.346;2024-03-06T00:37:52;101570.00;;;7.90
15845;BMP180;50807;52.436;13.346;2024-03-06T00:38:23;101574.00;;;7.90
15845;BMP180;50807;52.436;13.346;2024-03-06T00:38:54;101578.00;;;7.90
15845;BMP180;50807;52.436;13.346;2024-03-06T00:39:25;101576.00;;;7.90
15845;BMP180;50807;52.436;13.346;2024-03-06T00:39:56;101574.00;;;7.90
15845;BMP180;50807;52.436;13.346;2024-03-06T00:40:28;101575.00;;;7.90
15845;BMP180;50807;52.436;13.346;2024-03-06T00:41:01;101570.00;;;7.90
15845;BMP180;50807;52.436;13.346;2024-03-06T00:41:32;101571.00;;;7.90
15845;BMP180;50807;52.436;13.346;2024-03-06T00:42:03;101580.00;;;7.90
15845;BMP180;50807;52.436;13.346;2024-03-06T00:42:35;101580.00;;;7.90
15845;BMP180;50807;52.436;13.346;2024-03-06T00:43:06;101580.00;;;7.90
15845;BMP180;50807;52.436;13.346;2024-03-06T00:43:36;101580.00;;;7.90
15845;BMP180;50807;52.436;13.346;2024-03-06T00:44:08;101578.00;;;7.90
15845;BMP180;50807;52.436;13.346;2024-03-06T00:44:39;101580.00;;;7.90
15845;BMP180;50807;52.436;13.346;2024-03-06T00:45:11;101578.00;;;7.90
15845;BMP180;50807;52.436;13.346;2024-03-06T00:45:42;101578.00;;;7.90
15845;BMP180;50807;52.436;13.346;2024-03-06T00:46:14;101580.00;;;7.90
15845;BMP180;50807;52.436;13.346;2024-03-06T00:46:45;101581.00;;;7.90
15845;BMP180;50807;52.436;13.346;2024-03-06T00:47:15;101585.00;;;7.90
15845;BMP180;50807;52.436;13.346;2024-03-06T00:47:46;101576.00;;;7.90
15845;BMP180;50807;52.436;13.346;2024-03-06T00:48:18;101587.00;;;7.90
15845;BMP180;50807;52.436;13.346;2024-03-06T00:48:50;101592.00;;;7.80
15845;BMP180;50807;52.436;13.346;2024-03-06T00:49:21;101585.00;;;7.80
15845;BMP180;50807;52.436;13.346;2024-03-06T00:49:52;101584.00;;;7.80
15845;BMP180;50807;52.436;13.346;2024-03-06T00:50:23;101588.00;;;7.80
15845;BMP180;50807;52.436;13.346;2024-03-06T00:50:54;101592.00;;;7.80
15845;BMP180;50807;52.436;13.346;2024-03-06T00:51:25;101585.00;;;7.80
15845;BMP180;50807;52.436;13.346;2024-03-06T00:51:56;101584.00;;;7.80
15845;BMP180;50807;52.436;13.346;2024-03-06T00:52:27;101589.00;;;7.80
15845;BMP180;50807;52.436;13.346;2024-03-06T00:52:58;101589.00;;;7.80
15845;BMP180;50807;52.436;13.346;2024-03-06T00:53:29;101581.00;;;7.80
15845;BMP180;50807;52.436;13.346;2024-03-06T00:53:59;101589.00;;;7.80
15845;BMP180;50807;52.436;13.346;2024-03-06T00:54:32;101591.00;;;7.80
15845;BMP180;50807;52.436;13.346;2024-03-06T00:55:03;101590.00;;;7.80
15845;BMP180;50807;52.436;13.346;2024-03-06T00:55:34;101584.00;;;7.80
15845;BMP180;50807;52.436;13.346;2024-03-06T00:56:06;101585.00;;;7.80
15845;BMP180;50807;52.436;13.346;2024-03-06T00:56:38;101584.00;;;7.80
15845;BMP180;50807;52.436;13.346;2024-03-06T00:57:09;101585.00;;;7.80
15845;BMP180;50807;52.436;13.346;2024-03-06T00:57:40;101587.00;;;7.80
15845;BMP180;50807;52.436;13.346;2024-03-06T00:58:11;101584.00;;;7.80
15845;BMP180;50807;52.436;13.346;2024-03-06T00:58:42;101589.00;;;7.80
15845;BMP180;50807;52.436;13.346;2024-03-06T00:59:14;101588.00;;;7.80
15845;BMP180;50807;52.436;13.346;2024-03-06T00:59:44;101592.00;;;7.80
15845;BMP180;50807;52.436;13.346;2024-03-06T01:00:19;101593.00;;;7.80
15845;BMP180;50807;52.436;13.346;2024-03-06T01:00:50;101590.00;;;7.80
15845;BMP180;50807;52.436;13.346;2024-03-06T01:01:21;101595.00;;;7.80
15845;BMP180;50807;52.436;13.346;2024-03-06T01:01:52;101588.00;;;7.80
15845;BMP180;50807;52.436;13.346;2024-03-06T01:02:26;101593.00;;;7.70
15845;BMP180;50807;52.436;13.346;2024-03-06T01:02:58;101595.00;;;7.70
15845;BMP180;50807;52.436;13.346;2024-03-06T01:03:28;101598.00;;;7.70
15845;BMP180;50807;52.436;13.346;2024-03-06T01:03:59;101589.00;;;7.80
15845;BMP180;50807;52.436;13.346;2024-03-06T01:04:30;101586.00;;;7.70
15845;BMP180;50807;52.436;13.346;2024-03-06T01:05:02;101588.00;;;7.70
15845;BMP180;50807;52.436;13.346;2024-03-06T01:05:34;101589.00;;;7.70
15845;BMP180;50807;52.436;13.346;2024-03-06T01:06:05;101593.00;;;7.70
15845;BMP180;50807;52.436;13.346;2024-03-06T01:06:35;101594.00;;;7.70
15845;BMP180;50807;52.436;13.346;2024-03-06T01:07:06;101596.00;;;7.70
15845;BMP180;50807;52.436;13.346;2024-03-06T01:07:39;101592.00;;;7.70
15845;BMP180;50807;52.436;13.346;2024-03-06T01:08:10;101593.00;;;7.70
15845;BMP180;50807;52.436;13.346;2024-03-06T01:08:40;101594.00;;;7.70
15845;BMP180;50807;52.436;13.346;2024-03-06T01:09:11;101594.00;;;7.70
15845;BMP180;50807;52.436;13.346;2024-03-06T01:09:43;101586.00;;;7.70
15845;BMP180;50807;52.436;13.346;2024-03-06T01:10:14;101597.00;;;7.70
15845;BMP180;50807;52.436;13.346;2024-03-06T01:10:45;101595.00;;;7.70
15845;BMP180;50807;52.436;13.346;2024-03-06T01:11:15;101598.00;;;7.70
15845;BMP180;50807;52.436;13.346;2024-03-06T01:11:47;101594.00;;;7.70
15845;BMP180;50807;52.436;13.346;2024-03-06T01:12:18;101604.00;;;7.70
15845;BMP180;50807;52.436;13.346;2024-03-06T01:12:49;101602.00;;;7.70
15845;BMP180;50807;52.436;13.346;2024-03-06T01:13:20;101604.00;;;7.70
15845;BMP180;50807;52.436;13.346;2024-03-06T01:13:52;101593.00;;;7.70
15845;BMP180;50807;52.436;13.346;2024-03-06T01:14:23;101609.00;;;7.70
15845;BMP180;50807;52.436;13.346;2024-03-06T01:14:53;101602.00;;;7.70
15845;BMP180;50807;52.436;13.346;2024-03-06T01:15:25;101595.00;;;7.70
15845;BMP180;50807;52.436;13.346;2024-03-06T01:15:57;101604.00;;;7.60
15845;BMP180;50807;52.436;13.346;2024-03-06T01:16:28;101598.00;;;7.70
15845;BMP180;50807;52.436;13.346;2024-03-06T01:17:00;101601.00;;;7.60
15845;BMP180;50807;52.436;13.346;2024-03-06T01:17:30;101607.00;;;7.70
15845;BMP180;50807;52.436;13.346;2024-03-06T01:18:03;101605.00;;;7.70
15845;BMP180;50807;52.436;13.346;2024-03-06T01:18:33;101607.00;;;7.70
15845;BMP180;50807;52.436;13.346;2024-03-06T01:19:04;101603.00;;;7.70
15845;BMP180;50807;52.436;13.346;2024-03-06T01:19:36;101605.00;;;7.70
15845;BMP180;50807;52.436;13.346;2024-03-06T01:20:08;101606.00;;;7.60
15845;BMP180;50807;52.436;13.346;2024-03-06T01:20:39;101605.00;;;7.60
15845;BMP180;50807;52.436;13.346;2024-03-06T01:21:10;101614.00;;;7.60
15845;BMP180;50807;52.436;13.346;2024-03-06T01:21:41;101603.00;;;7.60
15845;BMP180;50807;52.436;13.346;2024-03-06T01:22:13;101602.00;;;7.60
15845;BMP180;50807;52.436;13.346;2024-03-06T01:22:43;101605.00;;;7.60
15845;BMP180;50807;52.436;13.346;2024-03-06T01:23:16;101616.00;;;7.60
15845;BMP180;50807;52.436;13.346;2024-03-06T01:23:47;101608.00;;;7.60
15845;BMP180;50807;52.436;13.346;2024-03-06T01:24:19;101616.00;;;7.60
15845;BMP180;50807;52.436;13.346;2024-03-06T01:24:49;101605.00;;;7.60
15845;BMP180;50807;52.436;13.346;2024-03-06T01:25:21;101613.00;;;7.60
15845;BMP180;50807;52.436;13.346;2024-03-06T01:25:52;101606.00;;;7.60
15845;BMP180;50807;52.436;13.346;2024-03-06T01:26:23;101604.00;;;7.60
15845;BMP180;50807;52.436;13.346;2024-03-06T01:26:54;101601.00;;;7.60
15845;BMP180;50807;52.436;13.346;2024-03-06T01:27:25;101608.00;;;7.60
15845;BMP180;50807;52.436;13.346;2024-03-06T01:27:56;101605.00;;;7.60
15845;BMP180;50807;52.436;13.346;2024-03-06T01:28:27;101606.00;;;7.60
15845;BMP180;50807;52.436;13.346;2024-03-06T01:28:59;101614.00;;;7.60
15845;BMP180;50807;52.436;13.346;2024-03-06T01:29:29;101629.00;;;7.60
15845;BMP180;50807;52.436;13.346;2024-03-06T01:30:00;101607.00;;;7.60
15845;BMP180;50807;52.436;13.346;2024-03-06T01:30:32;101607.00;;;7.60
15845;BMP180;50807;52.436;13.346;2024-03-06T01:31:04;101615.00;;;7.60
15845;BMP180;50807;52.436;13.346;2024-03-06T01:31:35;101607.00;;;7.50
15845;BMP180;50807;52.436;13.346;2024-03-06T01:32:05;101616.00;;;7.50
15845;BMP180;50807;52.436;13.346;2024-03-06T01:32:36;101612.00;;;7.50
15845;BMP180;50807;52.436;13.346;2024-03-06T01:33:07;101615.00;;;7.50
15845;BMP180;50807;52.436;13.346;2024-03-06T01:33:40;101616.00;;;7.50
15845;BMP180;50807;52.436;13.346;2024-03-06T01:34:10;101614.00;;;7.50
15845;BMP180;50807;52.436;13.346;2024-03-06T01:34:41;101617.00;;;7.50
15845;BMP180;50807;52.436;13.346;2024-03-06T01:35:12;101621.00;;;7.50
15845;BMP180;50807;52.436;13.346;2024-03-06T01:35:44;101623.00;;;7.50
15845;BMP180;50807;52.436;13.346;2024-03-06T01:36:14;101620.00;;;7.50
15845;BMP180;50807;52.436;13.346;2024-03-06T01:36:45;101615.00;;;7.50
15845;BMP180;50807;52.436;13.346;2024-03-06T01:37:16;101608.00;;;7.50
15845;BMP180;50807;52.436;13.346;2024-03-06T01:37:48;101623.00;;;7.50
15845;BMP180;50807;52.436;13.346;2024-03-06T01:38:18;101615.00;;;7.50
15845;BMP180;50807;52.436;13.346;2024-03-06T01:38:49;101615.00;;;7.60
15845;BMP180;50807;52.436;13.346;2024-03-06T01:39:20;101615.00;;;7.50
15845;BMP180;50807;52.436;13.346;2024-03-06T01:39:51;101624.00;;;7.50
15845;BMP180;50807;52.436;13.346;2024-03-06T01:40:22;101617.00;;;7.60
15845;BMP180;50807;52.436;13.346;2024-03-06T01:40:53;101619.00;;;7.50
15845;BMP180;50807;52.436;13.346;2024-03-06T01:41:23;101609.00;;;7.50
15845;BMP180;50807;52.436;13.346;2024-03-06T01:41:55;101618.00;;;7.50
15845;BMP180;50807;52.436;13.346;2024-03-06T01:42:26;101618.00;;;7.50
15845;BMP180;50807;52.436;13.346;2024-03-06T01:42:57;101622.00;;;7.50
15845;BMP180;50807;52.436;13.346;2024-03-06T01:43:27;101617.00;;;7.50
15845;BMP180;50807;52.436;13.346;2024-03-06T01:43:59;101619.00;;;7.50
15845;BMP180;50807;52.436;13.346;2024-03-06T01:44:30;101627.00;;;7.50
15845;BMP180;50807;52.436;13.346;2024-03-06T01:45:02;101626.00;;;7.50
15845;BMP180;50807;52.436;13.346;2024-03-06T01:45:34;101628.00;;;7.50
15845;BMP180;50807;52.436;13.346;2024-03-06T01:46:06;101622.00;;;7.50
15845;BMP180;50807;52.436;13.346;2024-03-06T01:46:37;101621.00;;;7.50
15845;BMP180;50807;52.436;13.346;2024-03-06T01:47:07;101622.00;;;7.50
15845;BMP180;50807;52.436;13.346;2024-03-06T01:47:38;101626.00;;;7.50
15845;BMP180;50807;52.436;13.346;2024-03-06T01:48:10;101634.00;;;7.50
15845;BMP180;50807;52.436;13.346;2024-03-06T01:48:41;101625.00;;;7.50
15845;BMP180;50807;52.436;13.346;2024-03-06T01:49:15;101621.00;;;7.50
15845;BMP180;50807;52.436;13.346;2024-03-06T01:49:46;101624.00;;;7.40
15845;BMP180;50807;52.436;13.346;2024-03-06T01:50:18;101622.00;;;7.40
15845;BMP180;50807;52.436;13.346;2024-03-06T01:50:49;101629.00;;;7.50
15845;BMP180;50807;52.436;13.346;2024-03-06T01:51:20;101629.00;;;7.50
15845;BMP180;50807;52.436;13.346;2024-03-06T01:51:54;101625.00;;;7.40
15845;BMP180;50807;52.436;13.346;2024-03-06T01:52:27;101621.00;;;7.40
15845;BMP180;50807;52.436;13.346;2024-03-06T01:52:58;101624.00;;;7.40
15845;BMP180;50807;52.436;13.346;2024-03-06T01:53:31;101631.00;;;7.40
15845;BMP180;50807;52.436;13.346;2024-03-06T01:54:03;101618.00;;;7.40
15845;BMP180;50807;52.436;13.346;2024-03-06T01:54:35;101627.00;;;7.40
15845;BMP180;50807;52.436;13.346;2024-03-06T01:55:07;101622.00;;;7.40
15845;BMP180;50807;52.436;13.346;2024-03-06T01:55:39;101624.00;;;7.40
15845;BMP180;50807;52.436;13.346;2024-03-06T01:56:09;101616.00;;;7.40
15845;BMP180;50807;52.436;13.346;2024-03-06T01:56:49;101622.00;;;7.40
15845;BMP180;50807;52.436;13.346;2024-03-06T01:57:20;101623.00;;;7.40
15845;BMP180;50807;52.436;13.346;2024-03-06T01:57:51;101624.00;;;7.40
15845;BMP180;50807;52.436;13.346;2024-03-06T01:58:23;101624.00;;;7.40
15845;BMP180;50807;52.436;13.346;2024-03-06T01:58:56;101614.00;;;7.40
15845;BMP180;50807;52.436;13.346;2024-03-06T01:59:28;101622.00;;;7.40
15845;BMP180;50807;52.436;13.346;2024-03-06T01:59:59;101631.00;;;7.40
15845;BMP180;50807;52.436;13.346;2024-03-06T02:00:30;101627.00;;;7.40
15845;BMP180;50807;52.436;13.346;2024-03-06T02:01:03;101621.00;;;7.40
15845;BMP180;50807;52.436;13.346;2024-03-06T02:01:34;101626.00;;;7.40
15845;BMP180;50807;52.436;13.346;2024-03-06T02:02:06;101626.00;;;7.40
15845;BMP180;50807;52.436;13.346;2024-03-06T02:02:38;101624.00;;;7.40
15845;BMP180;50807;52.436;13.346;2024-03-06T02:03:09;101617.00;;;7.40
15845;BMP180;50807;52.436;13.346;2024-03-06T02:03:43;101617.00;;;7.30
15845;BMP180;50807;52.436;13.346;2024-03-06T02:04:14;101621.00;;;7.30
15845;BMP180;50807;52.436;13.346;2024-03-06T02:04:45;101629.00;;;7.40
15845;BMP180;50807;52.436;13.346;2024-03-06T02:05:16;101629.00;;;7.30
15845;BMP180;50807;52.436;13.346;2024-03-06T02:05:49;101625.00;;;7.30
15845;BMP180;50807;52.436;13.346;2024-03-06T02:06:21;101623.00;;;7.30
15845;BMP180;50807;52.436;13.346;2024-03-06T02:06:52;101618.00;;;7.30
15845;BMP180;50807;52.436;13.346;2024-03-06T02:07:24;101624.00;;;7.30
15845;BMP180;50807;52.436;13.346;2024-03-06T02:07:57;101626.00;;;7.30
15845;BMP180;50807;52.436;13.346;2024-03-06T02:08:28;101623.00;;;7.30
15845;BMP180;50807;52.436;13.346;2024-03-06T02:08:58;101615.00;;;7.30
15845;BMP180;50807;52.436;13.346;2024-03-06T02:09:29;101625.00;;;7.30
15845;BMP180;50807;52.436;13.346;2024-03-06T02:10:01;101623.00;;;7.30
15845;BMP180;50807;52.436;13.346;2024-03-06T02:10:32;101635.00;;;7.30
15845;BMP180;50807;52.436;13.346;2024-03-06T02:11:03;101618.00;;;7.30
15845;BMP180;50807;52.436;13.346;2024-03-06T02:11:36;101615.00;;;7.30
15845;BMP180;50807;52.436;13.346;2024-03-06T02:12:07;101627.00;;;7.30
15845;BMP180;50807;52.436;13.346;2024-03-06T02:12:38;101627.00;;;7.30
15845;BMP180;50807;52.436;13.346;2024-03-06T02:13:09;101622.00;;;7.30
15845;BMP180;50807;52.436;13.346;2024-03-06T02:13:40;101625.00;;;7.30
15845;BMP180;50807;52.436;13.346;2024-03-06T02:14:12;101635.00;;;7.30
15845;BMP180;50807;52.436;13.346;2024-03-06T02:14:44;101629.00;;;7.30
15845;BMP180;50807;52.436;13.346;2024-03-06T02:15:15;101620.00;;;7.30
15845;BMP180;50807;52.436;13.346;2024-03-06T02:15:45;101620.00;;;7.30
15845;BMP180;50807;52.436;13.346;2024-03-06T02:16:17;101624.00;;;7.30
15845;BMP180;50807;52.436;13.346;2024-03-06T02:16:49;101623.00;;;7.30
15845;BMP180;50807;52.436;13.346;2024-03-06T02:17:20;101626.00;;;7.30
15845;BMP180;50807;52.436;13.346;2024-03-06T02:17:52;101624.00;;;7.30
15845;BMP180;50807;52.436;13.346;2024-03-06T02:18:23;101612.00;;;7.30
15845;BMP180;50807;52.436;13.346;2024-03-06T02:18:56;101620.00;;;7.20
15845;BMP180;50807;52.436;13.346;2024-03-06T02:19:38;101627.00;;;7.10
15845;BMP180;50807;52.436;13.346;2024-03-06T02:20:11;101623.00;;;7.20
15845;BMP180;50807;52.436;13.346;2024-03-06T02:20:44;101630.00;;;7.20
15845;BMP180;50807;52.436;13.346;2024-03-06T02:21:17;101624.00;;;7.20
15845;BMP180;50807;52.436;13.346;2024-03-06T02:21:48;101631.00;;;7.20
15845;BMP180;50807;52.436;13.346;2024-03-06T02:22:19;101635.00;;;7.20
15845;BMP180;50807;52.436;13.346;2024-03-06T02:22:49;101634.00;;;7.20
15845;BMP180;50807;52.436;13.346;2024-03-06T02:23:20;101631.00;;;7.20
15845;BMP180;50807;52.436;13.346;2024-03-06T02:23:52;101632.00;;;7.20
15845;BMP180;50807;52.436;13.346;2024-03-06T02:24:24;101629.00;;;7.20
15845;BMP180;50807;52.436;13.346;2024-03-06T02:24:55;101630.00;;;7.20
15845;BMP180;50807;52.436;13.346;2024-03-06T02:25:26;101628.00;;;7.20
15845;BMP180;50807;52.436;13.346;2024-03-06T02:25:58;101636.00;;;7.20
15845;BMP180;50807;52.436;13.346;2024-03-06T02:26:28;101629.00;;;7.20
15845;BMP180;50807;52.436;13.346;2024-03-06T02:26:59;101635.00;;;7.20
15845;BMP180;50807;52.436;13.346;2024-03-06T02:27:30;101628.00;;;7.20
15845;BMP180;50807;52.436;13.346;2024-03-06T02:28:03;101626.00;;;7.20
15845;BMP180;50807;52.436;13.346;2024-03-06T02:28:33;101625.00;;;7.20
15845;BMP180;50807;52.436;13.346;2024-03-06T02:29:05;101628.00;;;7.20
15845;BMP180;50807;52.436;13.346;2024-03-06T02:29:36;101631.00;;;7.20
15845;BMP180;50807;52.436;13.346;2024-03-06T02:30:10;101634.00;;;7.20
15845;BMP180;50807;52.436;13.346;2024-03-06T02:30:41;101636.00;;;7.20
15845;BMP180;50807;52.436;13.346;2024-03-06T02:31:12;101636.00;;;7.20
15845;BMP180;50807;52.436;13.346;2024-03-06T02:31:42;101634.00;;;7.20
15845;BMP180;50807;52.436;13.346;2024-03-06T02:32:13;101639.00;;;7.20
15845;BMP180;50807;52.436;13.346;2024-03-06T02:32:45;101639.00;;;7.20
15845;BMP180;50807;52.436;13.346;2024-03-06T02:33:16;101641.00;;;7.20
15845;BMP180;50807;52.436;13.346;2024-03-06T02:33:49;101628.00;;;7.20
15845;BMP180;50807;52.436;13.346;2024-03-06T02:34:21;101633.00;;;7.20
15845;BMP180;50807;52.436;13.346;2024-03-06T02:34:52;101629.00;;;7.20
15845;BMP180;50807;52.436;13.346;2024-03-06T02:35:23;101629.00;;;7.20
15845;BMP180;50807;52.436;13.346;2024-03-06T02:35:55;101637.00;;;7.20
15845;BMP180;50807;52.436;13.346;2024-03-06T02:36:26;101633.00;;;7.20
15845;BMP180;50807;52.436;13.346;2024-03-06T02:36:57;101631.00;;;7.20
15845;BMP180;50807;52.436;13.346;2024-03-06T02:37:28;101634.00;;;7.20
15845;BMP180;50807;52.436;13.346;2024-03-06T02:38:00;101630.00;;;7.20
15845;BMP180;50807;52.436;13.346;2024-03-06T02:38:32;101633.00;;;7.20
15845;BMP180;50807;52.436;13.346;2024-03-06T02:39:02;101636.00;;;7.20
15845;BMP180;50807;52.436;13.346;2024-03-06T02:39:39;101640.00;;;7.20
15845;BMP180;50807;52.436;13.346;2024-03-06T02:40:10;101629.00;;;7.20
15845;BMP180;50807;52.436;13.346;2024-03-06T02:40:43;101640.00;;;7.20
15845;BMP180;50807;52.436;13.346;2024-03-06T02:41:14;101638.00;;;7.20
15845;BMP180;50807;52.436;13.346;2024-03-06T02:41:46;101640.00;;;7.20
15845;BMP180;50807;52.436;13.346;2024-03-06T02:42:17;101640.00;;;7.20
15845;BMP180;50807;52.436;13.346;2024-03-06T02:42:49;101641.00;;;7.20
15845;BMP180;50807;52.436;13.346;2024-03-06T02:43:19;101637.00;;;7.20
15845;BMP180;50807;52.436;13.346;2024-03-06T02:43:50;101636.00;;;7.20
15845;BMP180;50807;52.436;13.346;2024-03-06T02:44:22;101635.00;;;7.20
15845;BMP180;50807;52.436;13.346;2024-03-06T02:44:54;101632.00;;;7.20
15845;BMP180;50807;52.436;13.346;2024-03-06T02:45:24;101641.00;;;7.20
15845;BMP180;50807;52.436;13.346;2024-03-06T02:45:55;101645.00;;;7.20
15845;BMP180;50807;52.436;13.346;2024-03-06T02:46:27;101640.00;;;7.20
15845;BMP180;50807;52.436;13.346;2024-03-06T02:46:58;101640.00;;;7.20
15845;BMP180;50807;52.436;13.346;2024-03-06T02:47:28;101642.00;;;7.20
15845;BMP180;50807;52.436;13.346;2024-03-06T02:47:59;101643.00;;;7.20
15845;BMP180;50807;52.436;13.346;2024-03-06T02:48:31;101639.00;;;7.20
15845;BMP180;50807;52.436;13.346;2024-03-06T02:49:02;101636.00;;;7.20
15845;BMP180;50807;52.436;13.346;2024-03-06T02:49:33;101634.00;;;7.20
15845;BMP180;50807;52.436;13.346;2024-03-06T02:50:05;101634.00;;;7.20
15845;BMP180;50807;52.436;13.346;2024-03-06T02:50:37;101637.00;;;7.10
15845;BMP180;50807;52.436;13.346;2024-03-06T02:51:09;101640.00;;;7.10
15845;BMP180;50807;52.436;13.346;2024-03-06T02:51:40;101637.00;;;7.10
15845;BMP180;50807;52.436;13.346;2024-03-06T02:52:11;101639.00;;;7.10
15845;BMP180;50807;52.436;13.346;2024-03-06T02:52:42;101650.00;;;7.10
15845;BMP180;50807;52.436;13.346;2024-03-06T02:53:14;101643.00;;;7.10
15845;BMP180;50807;52.436;13.346;2024-03-06T02:53:44;101634.00;;;7.10
15845;BMP180;50807;52.436;13.346;2024-03-06T02:54:15;101649.00;;;7.10
15845;BMP180;50807;52.436;13.346;2024-03-06T02:54:47;101645.00;;;7.10
15845;BMP180;50807;52.436;13.346;2024-03-06T02:55:17;101641.00;;;7.20
15845;BMP180;50807;52.436;13.346;2024-03-06T02:55:49;101641.00;;;7.10
15845;BMP180;50807;52.436;13.346;2024-03-06T02:56:20;101638.00;;;7.20
15845;BMP180;50807;52.436;13.346;2024-03-06T02:56:51;101644.00;;;7.10
15845;BMP180;50807;52.436;13.346;2024-03-06T02:57:22;101642.00;;;7.10
15845;BMP180;50807;52.436;13.346;2024-03-06T02:57:53;101639.00;;;7.20
15845;BMP180;50807;52.436;13.346;2024-03-06T02:58:24;101636.00;;;7.10